createdAt,value
2018-06-21T00:01:50.513Z,101021.28
2018-06-21T00:06:53.798Z,101010.70
2018-06-21T00:11:57.101Z,101018.76
2018-06-21T00:17:00.369Z,101021.27
2018-06-21T00:22:03.651Z,101010.97
2018-06-21T00:27:06.750Z,101016.53
2018-06-21T00:32:10.221Z,101020.02
2018-06-21T00:37:13.517Z,101011.22
2018-06-21T00:42:16.570Z,101001.11
2018-06-21T00:47:19.621Z,101002.97
2018-06-21T00:52:22.637Z,101007.55
2018-06-21T00:57:25.695Z,100993.86
2018-06-21T01:02:28.862Z,100990.54
2018-06-21T01:07:32.196Z,100984.54
2018-06-21T01:12:35.259Z,100973.77
2018-06-21T01:17:38.244Z,100958.39
2018-06-21T01:27:54.910Z,100949.37
2018-06-21T01:32:57.981Z,100944.23
2018-06-21T01:38:01.018Z,100928.84
2018-06-21T01:43:04.265Z,100927.98
2018-06-21T01:48:07.413Z,100920.98
2018-06-21T01:53:10.418Z,100921.45
2018-06-21T01:58:13.418Z,100920.58
2018-06-21T02:03:16.446Z,100913.58
2018-06-21T02:08:19.486Z,100907.67
2018-06-21T02:13:22.516Z,100901.37
2018-06-21T02:18:25.541Z,100899.30
2018-06-21T02:23:28.556Z,100891.41
2018-06-21T02:28:31.615Z,100884.22
2018-06-21T02:33:34.682Z,100875.62
2018-06-21T02:38:37.795Z,100875.56
2018-06-21T02:43:40.806Z,100868.70
2018-06-21T02:48:43.922Z,100862.05
2018-06-21T02:53:46.977Z,100860.67
2018-06-21T02:58:50.006Z,100856.94
2018-06-21T03:03:53.606Z,100852.72
2018-06-21T03:08:56.551Z,100843.20
2018-06-21T03:13:59.602Z,100836.92
2018-06-21T03:19:02.744Z,100826.00
2018-06-21T03:24:05.802Z,100817.11
2018-06-21T03:29:08.845Z,100812.72
2018-06-21T03:34:11.874Z,100814.19
2018-06-21T03:39:14.885Z,100815.34
2018-06-21T03:44:17.906Z,100808.27
2018-06-21T03:49:20.913Z,100806.27
2018-06-21T03:54:24.233Z,100798.92
2018-06-21T03:59:27.262Z,100785.52
2018-06-21T04:04:30.330Z,100781.47
2018-06-21T04:09:33.429Z,100785.11
2018-06-21T04:14:36.453Z,100778.37
2018-06-21T04:19:39.482Z,100773.43
2018-06-21T04:24:42.497Z,100770.34
2018-06-21T04:34:48.479Z,100756.58
2018-06-21T04:39:52.065Z,100750.17
2018-06-21T04:44:55.201Z,100749.92
2018-06-21T04:49:58.299Z,100749.54
2018-06-21T04:55:01.793Z,100738.87
2018-06-21T05:00:05.011Z,100736.56
2018-06-21T05:05:08.138Z,100731.70
2018-06-21T05:10:11.185Z,100721.92
2018-06-21T05:15:14.197Z,100709.77
2018-06-21T05:20:17.314Z,100708.53
2018-06-21T05:25:20.410Z,100718.13
2018-06-21T05:30:25.246Z,100712.84
2018-06-21T05:35:28.321Z,100709.25
2018-06-21T05:40:35.655Z,100706.85
2018-06-21T05:45:38.710Z,100708.95
2018-06-21T05:50:41.770Z,100701.34
2018-06-21T05:55:44.846Z,100699.06
2018-06-21T06:00:47.967Z,100691.78
2018-06-21T06:05:50.975Z,100689.80
2018-06-21T06:10:54.146Z,100685.31
2018-06-21T06:15:57.201Z,100708.20
2018-06-21T06:21:01.390Z,100724.31
2018-06-21T06:26:04.566Z,100727.94
2018-06-21T06:31:07.613Z,100743.91
2018-06-21T06:36:10.669Z,100748.79
2018-06-21T06:41:13.846Z,100766.08
2018-06-21T06:46:17.004Z,100764.78
2018-06-21T06:51:21.089Z,100774.55
2018-06-21T06:56:24.150Z,100789.34
2018-06-21T07:01:27.210Z,100819.18
2018-06-21T07:06:30.292Z,100827.30
2018-06-21T07:11:33.553Z,100830.52
2018-06-21T07:16:36.598Z,100815.66
2018-06-21T07:21:40.046Z,100837.02
2018-06-21T07:26:43.265Z,100806.62
2018-06-21T07:31:46.311Z,100816.75
2018-06-21T07:36:49.402Z,100834.64
2018-06-21T07:41:52.507Z,100844.02
2018-06-21T07:46:55.581Z,100838.36
2018-06-21T07:51:58.817Z,100848.39
2018-06-21T07:57:01.903Z,100847.63
2018-06-21T08:02:05.159Z,100851.03
2018-06-21T08:07:08.442Z,100858.80
2018-06-21T08:12:11.546Z,100851.31
2018-06-21T08:17:14.734Z,100862.53
2018-06-21T08:22:17.930Z,100872.13
2018-06-21T08:27:21.226Z,100878.40
2018-06-21T08:32:24.285Z,100880.81
2018-06-21T08:37:27.372Z,100882.02
2018-06-21T08:42:30.594Z,100887.73
2018-06-21T08:47:33.675Z,100888.78
2018-06-21T08:52:36.712Z,100883.69
2018-06-21T08:57:39.797Z,100885.28
2018-06-21T09:02:42.818Z,100884.17
2018-06-21T09:07:45.885Z,100882.95
2018-06-21T09:12:49.502Z,100893.12
2018-06-21T09:17:52.660Z,100899.18
2018-06-21T09:22:55.679Z,100905.48
2018-06-21T09:27:58.714Z,100899.32
2018-06-21T09:33:01.759Z,100906.98
2018-06-21T09:38:14.012Z,100907.78
2018-06-21T09:43:22.820Z,100909.76
2018-06-21T09:48:29.398Z,100902.09
2018-06-21T09:53:32.482Z,100930.93
2018-06-21T09:58:35.548Z,100930.58
2018-06-21T10:03:38.693Z,100944.55
2018-06-21T10:08:41.726Z,100956.48
2018-06-21T10:13:44.735Z,100948.04
2018-06-21T10:18:47.889Z,100943.61
2018-06-21T10:23:50.861Z,100945.55
2018-06-21T10:28:53.892Z,100940.84
2018-06-21T10:33:56.905Z,100989.89
2018-06-21T10:39:00.028Z,101017.25
2018-06-21T10:44:03.133Z,101013.86
2018-06-21T10:49:06.252Z,101023.07
2018-06-21T10:54:09.258Z,101032.67
2018-06-21T10:59:12.316Z,101032.55
2018-06-21T11:04:15.334Z,101023.95
2018-06-21T11:09:18.366Z,101014.46
2018-06-21T11:14:21.365Z,101020.74
2018-06-21T11:19:24.470Z,101013.88
2018-06-21T11:24:27.777Z,101047.78
2018-06-21T11:29:30.820Z,101045.12
2018-06-21T11:34:33.874Z,101043.94
2018-06-21T11:39:37.014Z,101044.80
2018-06-21T11:44:40.062Z,101045.27
2018-06-21T11:49:43.106Z,101045.52
2018-06-21T11:54:46.137Z,101041.64
2018-06-21T11:59:49.695Z,101077.34
2018-06-21T12:04:53.238Z,101100.92
2018-06-21T12:09:56.288Z,101141.11
2018-06-21T12:14:59.329Z,101179.66
2018-06-21T12:20:02.373Z,101166.05
2018-06-21T12:25:05.498Z,101177.66
2018-06-21T12:30:08.543Z,101180.39
2018-06-21T12:35:11.605Z,101183.11
2018-06-21T12:40:14.649Z,101198.89
2018-06-21T12:45:17.645Z,101205.41
2018-06-21T12:50:20.765Z,101195.48
2018-06-21T12:55:23.790Z,101188.30
2018-06-21T13:00:27.073Z,101224.36
2018-06-21T13:05:30.126Z,101249.06
2018-06-21T13:10:50.375Z,101245.73
2018-06-21T13:15:53.421Z,101240.41
2018-06-21T13:20:56.427Z,101237.96
2018-06-21T13:25:59.441Z,101244.27
2018-06-21T13:31:02.560Z,101240.64
2018-06-21T13:36:05.683Z,101243.20
2018-06-21T13:41:08.726Z,101240.81
2018-06-21T13:46:11.787Z,101245.48
2018-06-21T13:51:14.888Z,101248.61
2018-06-21T13:56:17.965Z,101256.93
2018-06-21T14:01:21.041Z,101268.03
2018-06-21T14:06:24.026Z,101269.36
2018-06-21T14:11:27.177Z,101265.45
2018-06-21T14:16:30.306Z,101261.32
2018-06-21T14:21:33.609Z,101260.92
2018-06-21T14:26:37.241Z,101286.73
2018-06-21T14:31:40.273Z,101290.20
2018-06-21T14:36:43.256Z,101303.34
2018-06-21T14:41:46.389Z,101309.70
2018-06-21T14:46:49.426Z,101307.09
2018-06-21T14:51:52.461Z,101301.10
2018-06-21T14:56:55.511Z,101290.64
2018-06-21T15:01:58.808Z,101308.89
2018-06-21T15:07:01.855Z,101327.84
2018-06-21T15:12:05.051Z,101352.97
2018-06-21T15:17:08.089Z,101365.10
2018-06-21T15:22:11.093Z,101369.08
2018-06-21T15:27:14.133Z,101378.86
2018-06-21T15:32:17.385Z,101364.20
2018-06-21T15:37:20.664Z,101355.98
2018-06-21T15:42:23.726Z,101375.25
2018-06-21T15:47:26.814Z,101371.25
2018-06-21T15:52:29.907Z,101382.95
2018-06-21T15:57:33.061Z,101384.02
2018-06-21T16:02:36.156Z,101397.62
2018-06-21T16:07:39.185Z,101387.03
2018-06-21T16:12:42.233Z,101389.60
2018-06-21T16:17:45.261Z,101396.65
2018-06-21T16:22:48.420Z,101411.47
2018-06-21T16:27:51.463Z,101412.57
2018-06-21T16:32:54.536Z,101407.02
2018-06-21T16:37:57.632Z,101415.19
2018-06-21T16:43:00.872Z,101421.11
2018-06-21T16:48:04.090Z,101434.81
2018-06-21T16:53:07.117Z,101451.69
2018-06-21T16:58:10.173Z,101433.84
2018-06-21T17:03:13.228Z,101443.34
2018-06-21T17:08:16.305Z,101442.55
2018-06-21T17:13:19.348Z,101439.78
2018-06-21T17:18:22.433Z,101449.86
2018-06-21T17:23:25.484Z,101447.67
2018-06-21T17:28:28.581Z,101458.48
2018-06-21T17:33:31.720Z,101447.47
2018-06-21T17:38:34.774Z,101447.53
2018-06-21T17:43:38.217Z,101458.91
2018-06-21T17:48:41.277Z,101463.87
2018-06-21T17:53:44.597Z,101463.92
2018-06-21T17:58:47.626Z,101470.00
2018-06-21T18:03:50.730Z,101469.59
2018-06-21T18:08:53.844Z,101477.13
2018-06-21T18:13:56.918Z,101467.45
2018-06-21T18:19:00.012Z,101469.82
2018-06-21T18:24:03.160Z,101469.53
2018-06-21T18:29:06.274Z,101484.70
2018-06-21T18:34:09.368Z,101487.39
2018-06-21T18:39:12.824Z,101488.13
2018-06-21T18:44:15.978Z,101488.59
2018-06-21T18:49:19.060Z,101486.44
2018-06-21T18:54:22.149Z,101502.20
2018-06-21T18:59:25.286Z,101500.05
2018-06-21T19:04:29.232Z,101500.36
2018-06-21T19:09:38.181Z,101507.84
2018-06-21T19:14:41.264Z,101520.75
2018-06-21T19:19:44.622Z,101534.27
2018-06-21T19:24:47.694Z,101528.17
2018-06-21T19:29:50.851Z,101524.24
2018-06-21T19:34:55.264Z,101518.40
2018-06-21T19:39:58.506Z,101522.67
2018-06-21T19:45:01.789Z,101531.60
2018-06-21T19:50:05.269Z,101533.02
2018-06-21T19:55:08.387Z,101532.46
2018-06-21T20:00:11.567Z,101536.41
2018-06-21T20:05:14.624Z,101541.05
2018-06-21T20:10:17.737Z,101556.92
2018-06-21T20:15:20.830Z,101558.75
2018-06-21T20:20:29.582Z,101564.61
2018-06-21T20:25:33.533Z,101567.69
2018-06-21T20:30:36.591Z,101554.70
2018-06-21T20:35:39.639Z,101558.78
2018-06-21T20:40:42.876Z,101560.98
2018-06-21T20:45:45.923Z,101555.33
2018-06-21T20:50:49.208Z,101565.30
2018-06-21T20:55:52.334Z,101563.84
2018-06-21T21:00:55.494Z,101560.48
2018-06-21T21:05:58.992Z,101555.27
2018-06-21T21:11:02.071Z,101555.33
2018-06-21T21:16:05.323Z,101554.78
2018-06-21T21:21:09.476Z,101553.91
2018-06-21T21:26:12.595Z,101561.92
2018-06-21T21:31:15.683Z,101562.72
2018-06-21T21:36:18.637Z,101569.41
2018-06-21T21:41:21.706Z,101564.51
2018-06-21T21:46:24.715Z,101556.25
2018-06-21T21:51:27.791Z,101557.23
2018-06-21T21:56:30.807Z,101556.33
2018-06-21T22:01:33.822Z,101552.94
2018-06-21T22:06:36.912Z,101547.06
2018-06-21T22:11:39.934Z,101557.73
2018-06-21T22:16:43.014Z,101564.28
2018-06-21T22:21:46.050Z,101553.67
2018-06-21T22:26:49.082Z,101549.72
2018-06-21T22:31:52.145Z,101548.66
2018-06-21T22:36:55.213Z,101552.16
2018-06-21T22:41:58.258Z,101537.70
2018-06-21T22:47:02.737Z,101535.59
2018-06-21T22:52:05.943Z,101530.51
2018-06-21T22:57:09.041Z,101523.92
2018-06-21T23:02:12.082Z,101529.13
2018-06-21T23:07:15.090Z,101529.81
2018-06-21T23:12:18.081Z,101527.48
2018-06-21T23:17:22.278Z,101523.78
2018-06-21T23:22:25.337Z,101519.47
2018-06-21T23:27:28.385Z,101508.42
2018-06-21T23:32:31.391Z,101516.06
2018-06-21T23:37:34.386Z,101503.80
2018-06-21T23:42:37.493Z,101504.60
2018-06-21T23:47:40.550Z,101508.11
2018-06-21T23:52:43.594Z,101502.34
2018-06-21T23:57:46.611Z,101504.55
